sensor_id;sensor_type;location;lat;lon;timestamp;temperature;humidity
36458;DHT22;22480;50.546;12.292;2023-02-13T00:00:36;3.10;99.90
36458;DHT22;22480;50.546;12.292;2023-02-13T00:03:03;3.10;99.90
36458;DHT22;22480;50.546;12.292;2023-02-13T00:05:28;3.10;99.90
36458;DHT22;22480;50.546;12.292;2023-02-13T00:07:54;3.10;99.90
36458;DHT22;22480;50.546;12.292;2023-02-13T00:10:20;3.10;99.90
36458;DHT22;22480;50.546;12.292;2023-02-13T00:12:45;3.10;99.90
36458;DHT22;22480;50.546;12.292;2023-02-13T00:15:11;3.10;99.90
36458;DHT22;22480;50.546;12.292;2023-02-13T00:17:37;3.10;99.90
36458;DHT22;22480;50.546;12.292;2023-02-13T00:20:03;3.10;99.90
36458;DHT22;22480;50.546;12.292;2023-02-13T00:22:29;3.10;99.90
36458;DHT22;22480;50.546;12.292;2023-02-13T00:24:55;3.00;99.90
36458;DHT22;22480;50.546;12.292;2023-02-13T00:27:21;3.10;99.90
36458;DHT22;22480;50.546;12.292;2023-02-13T00:29:46;3.10;99.90
36458;DHT22;22480;50.546;12.292;2023-02-13T00:32:13;3.00;99.90
36458;DHT22;22480;50.546;12.292;2023-02-13T00:34:39;3.00;99.90
36458;DHT22;22480;50.546;12.292;2023-02-13T00:37:05;3.00;99.90
36458;DHT22;22480;50.546;12.292;2023-02-13T00:39:30;3.00;99.90
36458;DHT22;22480;50.546;12.292;2023-02-13T00:41:56;3.00;99.90
36458;DHT22;22480;50.546;12.292;2023-02-13T00:44:22;3.00;99.90
36458;DHT22;22480;50.546;12.292;2023-02-13T00:46:47;3.00;99.90
36458;DHT22;22480;50.546;12.292;2023-02-13T00:49:13;3.00;99.90
36458;DHT22;22480;50.546;12.292;2023-02-13T00:51:39;3.00;99.90
36458;DHT22;22480;50.546;12.292;2023-02-13T00:54:05;3.00;99.90
36458;DHT22;22480;50.546;12.292;2023-02-13T00:56:30;3.00;99.90
36458;DHT22;22480;50.546;12.292;2023-02-13T00:58:56;3.00;99.90
36458;DHT22;22480;50.546;12.292;2023-02-13T01:01:23;3.00;99.90
36458;DHT22;22480;50.546;12.292;2023-02-13T01:03:49;3.00;99.90
36458;DHT22;22480;50.546;12.292;2023-02-13T01:06:15;3.00;99.90
36458;DHT22;22480;50.546;12.292;2023-02-13T01:08:41;2.90;99.90
36458;DHT22;22480;50.546;12.292;2023-02-13T01:11:07;2.90;99.90
36458;DHT22;22480;50.546;12.292;2023-02-13T01:13:34;2.90;99.90
36458;DHT22;22480;50.546;12.292;2023-02-13T01:16:00;3.00;99.90
36458;DHT22;22480;50.546;12.292;2023-02-13T01:18:26;2.90;99.90
36458;DHT22;22480;50.546;12.292;2023-02-13T01:21:04;2.90;99.90
36458;DHT22;22480;50.546;12.292;2023-02-13T01:23:37;2.90;99.90
36458;DHT22;22480;50.546;12.292;2023-02-13T01:26:05;2.90;99.90
36458;DHT22;22480;50.546;12.292;2023-02-13T01:28:31;2.90;99.90
36458;DHT22;22480;50.546;12.292;2023-02-13T01:30:57;2.90;99.90
36458;DHT22;22480;50.546;12.292;2023-02-13T01:33:24;2.90;99.90
36458;DHT22;22480;50.546;12.292;2023-02-13T01:35:50;2.80;99.90
36458;DHT22;22480;50.546;12.292;2023-02-13T01:38:16;2.80;99.90
36458;DHT22;22480;50.546;12.292;2023-02-13T01:40:52;2.80;99.90
36458;DHT22;22480;50.546;12.292;2023-02-13T01:43:19;2.70;99.90
36458;DHT22;22480;50.546;12.292;2023-02-13T01:45:52;2.70;99.90
36458;DHT22;22480;50.546;12.292;2023-02-13T01:48:21;2.70;99.90
36458;DHT22;22480;50.546;12.292;2023-02-13T01:50:58;2.60;99.90
36458;DHT22;22480;50.546;12.292;2023-02-13T01:53:38;2.60;99.90
36458;DHT22;22480;50.546;12.292;2023-02-13T01:56:28;2.60;99.90
36458;DHT22;22480;50.546;12.292;2023-02-13T01:59:01;2.60;99.90
36458;DHT22;22480;50.546;12.292;2023-02-13T02:01:30;2.50;99.90
36458;DHT22;22480;50.546;12.292;2023-02-13T02:04:03;2.50;99.90
36458;DHT22;22480;50.546;12.292;2023-02-13T02:06:36;2.50;99.90
36458;DHT22;22480;50.546;12.292;2023-02-13T02:09:13;2.60;99.90
36458;DHT22;22480;50.546;12.292;2023-02-13T02:14:18;2.60;99.90
36458;DHT22;22480;50.546;12.292;2023-02-13T02:16:43;2.50;99.90
36458;DHT22;22480;50.546;12.292;2023-02-13T02:19:35;2.50;99.90
36458;DHT22;22480;50.546;12.292;2023-02-13T02:30:40;2.50;99.90
36458;DHT22;22480;50.546;12.292;2023-02-13T02:38:39;2.40;99.90
36458;DHT22;22480;50.546;12.292;2023-02-13T02:41:32;2.40;99.90
36458;DHT22;22480;50.546;12.292;2023-02-13T02:44:30;2.40;99.90
36458;DHT22;22480;50.546;12.292;2023-02-13T02:47:13;2.50;99.90
36458;DHT22;22480;50.546;12.292;2023-02-13T02:50:08;2.50;99.90
36458;DHT22;22480;50.546;12.292;2023-02-13T02:52:47;2.50;99.90
36458;DHT22;22480;50.546;12.292;2023-02-13T03:00:57;2.50;99.90
36458;DHT22;22480;50.546;12.292;2023-02-13T03:03:44;2.50;99.90
36458;DHT22;22480;50.546;12.292;2023-02-13T03:06:43;2.60;99.90
36458;DHT22;22480;50.546;12.292;2023-02-13T03:09:14;2.50;99.90
36458;DHT22;22480;50.546;12.292;2023-02-13T03:11:59;2.50;99.90
36458;DHT22;22480;50.546;12.292;2023-02-13T03:14:45;2.50;99.90
36458;DHT22;22480;50.546;12.292;2023-02-13T03:17:13;2.50;99.90
36458;DHT22;22480;50.546;12.292;2023-02-13T03:25:32;2.50;99.90
36458;DHT22;22480;50.546;12.292;2023-02-13T03:28:09;2.50;99.90
36458;DHT22;22480;50.546;12.292;2023-02-13T03:31:09;2.50;99.90
36458;DHT22;22480;50.546;12.292;2023-02-13T03:36:27;2.40;99.90
36458;DHT22;22480;50.546;12.292;2023-02-13T03:39:25;2.50;99.90
36458;DHT22;22480;50.546;12.292;2023-02-13T03:41:58;2.50;99.90
36458;DHT22;22480;50.546;12.292;2023-02-13T03:44:40;2.50;99.90
36458;DHT22;22480;50.546;12.292;2023-02-13T03:47:08;2.40;99.90
36458;DHT22;22480;50.546;12.292;2023-02-13T03:49:40;2.50;99.90
36458;DHT22;22480;50.546;12.292;2023-02-13T03:52:32;2.40;99.90
36458;DHT22;22480;50.546;12.292;2023-02-13T03:55:05;2.40;99.90
36458;DHT22;22480;50.546;12.292;2023-02-13T03:57:52;2.40;99.90
36458;DHT22;22480;50.546;12.292;2023-02-13T04:00:43;2.40;99.90
36458;DHT22;22480;50.546;12.292;2023-02-13T04:06:12;2.30;99.90
36458;DHT22;22480;50.546;12.292;2023-02-13T04:08:39;2.40;99.90
36458;DHT22;22480;50.546;12.292;2023-02-13T04:11:24;2.30;99.90
36458;DHT22;22480;50.546;12.292;2023-02-13T04:13:56;2.40;99.90
36458;DHT22;22480;50.546;12.292;2023-02-13T04:16:34;2.40;99.90
36458;DHT22;22480;50.546;12.292;2023-02-13T04:19:01;2.30;99.90
36458;DHT22;22480;50.546;12.292;2023-02-13T04:21:32;2.40;99.90
36458;DHT22;22480;50.546;12.292;2023-02-13T04:23:58;2.30;99.90
36458;DHT22;22480;50.546;12.292;2023-02-13T04:26:32;2.30;99.90
36458;DHT22;22480;50.546;12.292;2023-02-13T04:28:58;2.20;99.90
36458;DHT22;22480;50.546;12.292;2023-02-13T04:31:23;2.20;99.90
36458;DHT22;22480;50.546;12.292;2023-02-13T04:33:49;2.10;99.90
36458;DHT22;22480;50.546;12.292;2023-02-13T04:36:15;2.10;99.90
36458;DHT22;22480;50.546;12.292;2023-02-13T04:38:41;2.10;99.90
36458;DHT22;22480;50.546;12.292;2023-02-13T04:41:07;2.10;99.90
36458;DHT22;22480;50.546;12.292;2023-02-13T04:43:33;2.10;99.90
36458;DHT22;22480;50.546;12.292;2023-02-13T04:45:58;2.00;99.90
36458;DHT22;22480;50.546;12.292;2023-02-13T04:48:24;2.00;99.90
36458;DHT22;22480;50.546;12.292;2023-02-13T04:50:50;1.90;99.90
36458;DHT22;22480;50.546;12.292;2023-02-13T04:53:15;1.90;99.90
36458;DHT22;22480;50.546;12.292;2023-02-13T04:55:41;1.90;99.90
36458;DHT22;22480;50.546;12.292;2023-02-13T04:58:07;1.80;99.90
36458;DHT22;22480;50.546;12.292;2023-02-13T05:00:33;1.80;99.90
36458;DHT22;22480;50.546;12.292;2023-02-13T05:03:06;1.80;99.90
36458;DHT22;22480;50.546;12.292;2023-02-13T05:05:32;1.70;99.90
36458;DHT22;22480;50.546;12.292;2023-02-13T05:07:58;1.60;99.90
36458;DHT22;22480;50.546;12.292;2023-02-13T05:10:24;1.60;99.90
36458;DHT22;22480;50.546;12.292;2023-02-13T05:12:50;1.60;99.90
36458;DHT22;22480;50.546;12.292;2023-02-13T05:15:16;1.60;99.90
36458;DHT22;22480;50.546;12.292;2023-02-13T05:17:45;1.50;99.90
36458;DHT22;22480;50.546;12.292;2023-02-13T05:20:12;1.50;99.90
36458;DHT22;22480;50.546;12.292;2023-02-13T05:22:50;1.40;99.90
36458;DHT22;22480;50.546;12.292;2023-02-13T05:25:36;1.40;99.90
36458;DHT22;22480;50.546;12.292;2023-02-13T05:28:02;1.40;99.90
36458;DHT22;22480;50.546;12.292;2023-02-13T05:30:28;1.40;99.90
36458;DHT22;22480;50.546;12.292;2023-02-13T05:32:54;1.40;99.90
36458;DHT22;22480;50.546;12.292;2023-02-13T05:35:21;1.30;99.90
36458;DHT22;22480;50.546;12.292;2023-02-13T05:37:47;1.30;99.90
36458;DHT22;22480;50.546;12.292;2023-02-13T05:40:13;1.30;99.90
36458;DHT22;22480;50.546;12.292;2023-02-13T05:42:40;1.20;99.90
36458;DHT22;22480;50.546;12.292;2023-02-13T05:45:06;1.20;99.90
36458;DHT22;22480;50.546;12.292;2023-02-13T05:47:32;1.20;99.90
36458;DHT22;22480;50.546;12.292;2023-02-13T05:49:58;1.10;99.90
36458;DHT22;22480;50.546;12.292;2023-02-13T05:52:23;1.10;99.90
36458;DHT22;22480;50.546;12.292;2023-02-13T05:54:49;1.10;99.90
36458;DHT22;22480;50.546;12.292;2023-02-13T05:57:15;1.10;99.90
36458;DHT22;22480;50.546;12.292;2023-02-13T05:59:40;1.10;99.90
36458;DHT22;22480;50.546;12.292;2023-02-13T06:02:06;1.00;99.90
36458;DHT22;22480;50.546;12.292;2023-02-13T06:04:32;1.00;99.90
36458;DHT22;22480;50.546;12.292;2023-02-13T06:06:58;1.00;99.90
36458;DHT22;22480;50.546;12.292;2023-02-13T06:09:23;0.90;99.90
36458;DHT22;22480;50.546;12.292;2023-02-13T06:11:49;0.90;99.90
36458;DHT22;22480;50.546;12.292;2023-02-13T06:14:15;0.90;99.90
36458;DHT22;22480;50.546;12.292;2023-02-13T06:16:41;0.90;99.90
36458;DHT22;22480;50.546;12.292;2023-02-13T06:19:06;0.90;99.90
36458;DHT22;22480;50.546;12.292;2023-02-13T06:21:32;0.90;99.90
36458;DHT22;22480;50.546;12.292;2023-02-13T06:24:03;0.90;99.90
36458;DHT22;22480;50.546;12.292;2023-02-13T06:26:29;0.90;99.90
36458;DHT22;22480;50.546;12.292;2023-02-13T06:28:55;0.80;99.90
36458;DHT22;22480;50.546;12.292;2023-02-13T06:31:20;0.80;99.90
36458;DHT22;22480;50.546;12.292;2023-02-13T06:33:46;0.80;99.90
36458;DHT22;22480;50.546;12.292;2023-02-13T06:36:12;0.80;99.90
36458;DHT22;22480;50.546;12.292;2023-02-13T06:38:38;0.90;99.90
36458;DHT22;22480;50.546;12.292;2023-02-13T06:41:03;0.80;99.90
36458;DHT22;22480;50.546;12.292;2023-02-13T06:43:29;0.90;99.90
36458;DHT22;22480;50.546;12.292;2023-02-13T06:45:55;0.90;99.90
36458;DHT22;22480;50.546;12.292;2023-02-13T06:48:21;0.80;99.90
36458;DHT22;22480;50.546;12.292;2023-02-13T06:50:47;0.90;99.90
36458;DHT22;22480;50.546;12.292;2023-02-13T06:53:12;0.90;99.90
36458;DHT22;22480;50.546;12.292;2023-02-13T06:55:38;1.00;99.90
36458;DHT22;22480;50.546;12.292;2023-02-13T06:58:05;1.00;99.90
36458;DHT22;22480;50.546;12.292;2023-02-13T07:00:30;1.00;99.90
36458;DHT22;22480;50.546;12.292;2023-02-13T07:03:04;1.00;99.90
36458;DHT22;22480;50.546;12.292;2023-02-13T07:05:32;1.00;99.90
36458;DHT22;22480;50.546;12.292;2023-02-13T07:07:58;1.20;99.90
36458;DHT22;22480;50.546;12.292;2023-02-13T07:10:23;1.30;99.90
36458;DHT22;22480;50.546;12.292;2023-02-13T07:12:49;1.30;99.90
36458;DHT22;22480;50.546;12.292;2023-02-13T07:15:15;1.30;99.90
36458;DHT22;22480;50.546;12.292;2023-02-13T07:17:41;1.40;99.90
36458;DHT22;22480;50.546;12.292;2023-02-13T07:20:07;1.40;99.90
36458;DHT22;22480;50.546;12.292;2023-02-13T07:22:33;1.40;99.90
36458;DHT22;22480;50.546;12.292;2023-02-13T07:24:59;1.50;99.90
36458;DHT22;22480;50.546;12.292;2023-02-13T07:27:25;1.40;99.90
36458;DHT22;22480;50.546;12.292;2023-02-13T07:29:54;1.30;99.90
36458;DHT22;22480;50.546;12.292;2023-02-13T07:32:21;1.30;99.90
36458;DHT22;22480;50.546;12.292;2023-02-13T07:34:47;1.30;99.90
36458;DHT22;22480;50.546;12.292;2023-02-13T07:37:12;1.30;99.90
36458;DHT22;22480;50.546;12.292;2023-02-13T07:39:38;1.30;99.90
36458;DHT22;22480;50.546;12.292;2023-02-13T07:42:05;1.30;99.90
36458;DHT22;22480;50.546;12.292;2023-02-13T07:44:31;1.40;99.90
36458;DHT22;22480;50.546;12.292;2023-02-13T07:46:57;1.30;99.90
36458;DHT22;22480;50.546;12.292;2023-02-13T07:49:22;1.30;99.90
36458;DHT22;22480;50.546;12.292;2023-02-13T07:51:48;1.30;99.90
36458;DHT22;22480;50.546;12.292;2023-02-13T07:54:14;1.20;99.90
36458;DHT22;22480;50.546;12.292;2023-02-13T07:56:39;1.10;99.90
36458;DHT22;22480;50.546;12.292;2023-02-13T07:59:05;1.20;99.90
36458;DHT22;22480;50.546;12.292;2023-02-13T08:01:31;1.30;99.90
36458;DHT22;22480;50.546;12.292;2023-02-13T08:03:57;1.40;99.90
36458;DHT22;22480;50.546;12.292;2023-02-13T08:06:23;1.50;99.90
36458;DHT22;22480;50.546;12.292;2023-02-13T08:08:49;1.60;99.90
36458;DHT22;22480;50.546;12.292;2023-02-13T08:11:34;1.70;99.90
36458;DHT22;22480;50.546;12.292;2023-02-13T08:14:22;1.80;99.90
36458;DHT22;22480;50.546;12.292;2023-02-13T08:16:48;1.90;99.90
36458;DHT22;22480;50.546;12.292;2023-02-13T08:19:14;1.90;99.90
36458;DHT22;22480;50.546;12.292;2023-02-13T08:21:40;1.90;99.90
36458;DHT22;22480;50.546;12.292;2023-02-13T08:24:06;2.00;99.90
36458;DHT22;22480;50.546;12.292;2023-02-13T08:26:33;2.00;99.90
36458;DHT22;22480;50.546;12.292;2023-02-13T08:28:59;2.00;99.90
36458;DHT22;22480;50.546;12.292;2023-02-13T08:31:25;2.00;99.90
36458;DHT22;22480;50.546;12.292;2023-02-13T08:33:50;2.00;99.90
36458;DHT22;22480;50.546;12.292;2023-02-13T08:36:16;1.90;99.90
36458;DHT22;22480;50.546;12.292;2023-02-13T08:38:45;1.90;99.90
36458;DHT22;22480;50.546;12.292;2023-02-13T08:41:12;1.80;99.90
36458;DHT22;22480;50.546;12.292;2023-02-13T08:43:38;1.90;99.90
36458;DHT22;22480;50.546;12.292;2023-02-13T08:46:04;1.90;99.90
36458;DHT22;22480;50.546;12.292;2023-02-13T08:48:30;2.00;99.90
36458;DHT22;22480;50.546;12.292;2023-02-13T08:50:56;2.10;99.90
36458;DHT22;22480;50.546;12.292;2023-02-13T08:53:21;2.20;99.90
36458;DHT22;22480;50.546;12.292;2023-02-13T08:55:52;2.30;99.90
36458;DHT22;22480;50.546;12.292;2023-02-13T08:58:18;2.40;99.90
36458;DHT22;22480;50.546;12.292;2023-02-13T09:00:44;2.60;99.90
36458;DHT22;22480;50.546;12.292;2023-02-13T09:03:09;2.60;99.90
36458;DHT22;22480;50.546;12.292;2023-02-13T09:05:35;2.70;99.90
36458;DHT22;22480;50.546;12.292;2023-02-13T09:08:01;2.80;99.90
36458;DHT22;22480;50.546;12.292;2023-02-13T09:10:31;2.90;99.90
36458;DHT22;22480;50.546;12.292;2023-02-13T09:12:57;3.00;99.90
36458;DHT22;22480;50.546;12.292;2023-02-13T09:15:23;3.20;99.90
36458;DHT22;22480;50.546;12.292;2023-02-13T09:17:49;3.30;99.90
36458;DHT22;22480;50.546;12.292;2023-02-13T09:20:15;3.30;99.90
36458;DHT22;22480;50.546;12.292;2023-02-13T09:22:41;3.40;99.90
36458;DHT22;22480;50.546;12.292;2023-02-13T09:25:07;3.40;99.90
36458;DHT22;22480;50.546;12.292;2023-02-13T09:27:33;3.50;99.90
36458;DHT22;22480;50.546;12.292;2023-02-13T09:29:59;3.60;99.90
36458;DHT22;22480;50.546;12.292;2023-02-13T09:32:25;3.80;99.90
36458;DHT22;22480;50.546;12.292;2023-02-13T09:34:51;3.90;99.90
36458;DHT22;22480;50.546;12.292;2023-02-13T09:37:16;4.00;99.90
36458;DHT22;22480;50.546;12.292;2023-02-13T09:39:42;4.10;99.90
36458;DHT22;22480;50.546;12.292;2023-02-13T09:42:26;4.20;99.90
36458;DHT22;22480;50.546;12.292;2023-02-13T09:44:54;4.60;99.90
36458;DHT22;22480;50.546;12.292;2023-02-13T09:47:30;5.30;99.90
36458;DHT22;22480;50.546;12.292;2023-02-13T09:52:27;7.00;99.90
36458;DHT22;22480;50.546;12.292;2023-02-13T09:54:55;7.70;99.90
36458;DHT22;22480;50.546;12.292;2023-02-13T09:57:33;8.30;99.90
36458;DHT22;22480;50.546;12.292;2023-02-13T10:00:12;8.80;99.90
36458;DHT22;22480;50.546;12.292;2023-02-13T10:05:54;9.30;99.90
36458;DHT22;22480;50.546;12.292;2023-02-13T10:13:30;10.60;99.90
36458;DHT22;22480;50.546;12.292;2023-02-13T10:16:11;10.90;99.90
36458;DHT22;22480;50.546;12.292;2023-02-13T10:18:49;11.20;99.90
36458;DHT22;22480;50.546;12.292;2023-02-13T10:21:27;11.20;99.90
36458;DHT22;22480;50.546;12.292;2023-02-13T10:24:11;11.10;99.90
36458;DHT22;22480;50.546;12.292;2023-02-13T10:26:42;11.10;99.90
36458;DHT22;22480;50.546;12.292;2023-02-13T10:32:08;11.70;99.90
36458;DHT22;22480;50.546;12.292;2023-02-13T10:34:44;11.80;99.90
36458;DHT22;22480;50.546;12.292;2023-02-13T10:37:18;12.00;99.90
36458;DHT22;22480;50.546;12.292;2023-02-13T10:39:47;12.30;99.90
36458;DHT22;22480;50.546;12.292;2023-02-13T10:48:04;13.30;95.30
36458;DHT22;22480;50.546;12.292;2023-02-13T10:53:17;13.00;94.90
36458;DHT22;22480;50.546;12.292;2023-02-13T11:04:11;12.60;99.90
36458;DHT22;22480;50.546;12.292;2023-02-13T11:06:45;12.40;99.90
36458;DHT22;22480;50.546;12.292;2023-02-13T11:09:12;12.60;99.90
36458;DHT22;22480;50.546;12.292;2023-02-13T11:11:40;12.80;96.50
36458;DHT22;22480;50.546;12.292;2023-02-13T11:16:50;13.60;96.10
36458;DHT22;22480;50.546;12.292;2023-02-13T11:22:08;13.80;99.90
36458;DHT22;22480;50.546;12.292;2023-02-13T11:24:36;14.20;96.10
36458;DHT22;22480;50.546;12.292;2023-02-13T11:27:06;14.40;99.90
36458;DHT22;22480;50.546;12.292;2023-02-13T11:29:57;15.20;99.90
36458;DHT22;22480;50.546;12.292;2023-02-13T11:32:30;15.30;90.50
36458;DHT22;22480;50.546;12.292;2023-02-13T11:34:56;15.60;84.20
36458;DHT22;22480;50.546;12.292;2023-02-13T11:37:29;15.90;91.10
36458;DHT22;22480;50.546;12.292;2023-02-13T11:39:58;15.80;93.90
36458;DHT22;22480;50.546;12.292;2023-02-13T11:42:40;15.80;87.00
36458;DHT22;22480;50.546;12.292;2023-02-13T11:45:20;15.30;90.50
36458;DHT22;22480;50.546;12.292;2023-02-13T11:47:46;14.90;78.60
36458;DHT22;22480;50.546;12.292;2023-02-13T11:50:28;14.60;93.90
36458;DHT22;22480;50.546;12.292;2023-02-13T11:53:24;14.20;94.70
36458;DHT22;22480;50.546;12.292;2023-02-13T11:56:11;14.20;82.50
36458;DHT22;22480;50.546;12.292;2023-02-13T11:58:37;14.30;90.30
36458;DHT22;22480;50.546;12.292;2023-02-13T12:04:17;14.80;81.80
36458;DHT22;22480;50.546;12.292;2023-02-13T12:06:59;15.10;79.60
36458;DHT22;22480;50.546;12.292;2023-02-13T12:09:26;15.30;75.40
36458;DHT22;22480;50.546;12.292;2023-02-13T12:11:55;15.40;84.60
36458;DHT22;22480;50.546;12.292;2023-02-13T12:14:25;15.60;77.10
36458;DHT22;22480;50.546;12.292;2023-02-13T12:16:59;15.10;76.80
36458;DHT22;22480;50.546;12.292;2023-02-13T12:19:45;15.30;80.60
36458;DHT22;22480;50.546;12.292;2023-02-13T12:25:33;15.60;80.90
36458;DHT22;22480;50.546;12.292;2023-02-13T12:36:20;14.80;76.50
36458;DHT22;22480;50.546;12.292;2023-02-13T12:41:48;15.30;77.70
36458;DHT22;22480;50.546;12.292;2023-02-13T12:52:11;16.20;88.60
36458;DHT22;22480;50.546;12.292;2023-02-13T12:57:37;17.00;68.90
36458;DHT22;22480;50.546;12.292;2023-02-13T13:10:50;16.10;76.30
36458;DHT22;22480;50.546;12.292;2023-02-13T13:16:27;17.30;83.30
36458;DHT22;22480;50.546;12.292;2023-02-13T13:19:00;18.10;72.40
36458;DHT22;22480;50.546;12.292;2023-02-13T13:26:42;18.60;66.80
36458;DHT22;22480;50.546;12.292;2023-02-13T13:29:21;19.00;62.20
36458;DHT22;22480;50.546;12.292;2023-02-13T13:32:10;18.30;62.90
36458;DHT22;22480;50.546;12.292;2023-02-13T13:34:38;18.00;67.20
36458;DHT22;22480;50.546;12.292;2023-02-13T13:42:49;15.30;77.70
36458;DHT22;22480;50.546;12.292;2023-02-13T13:48:49;13.20;92.30
36458;DHT22;22480;50.546;12.292;2023-02-13T13:50:56;12.90;95.80
36458;DHT22;22480;50.546;12.292;2023-02-13T13:53:22;13.00;92.30
36458;DHT22;22480;50.546;12.292;2023-02-13T13:58:46;12.80;97.60
36458;DHT22;22480;50.546;12.292;2023-02-13T14:03:41;13.30;94.50
36458;DHT22;22480;50.546;12.292;2023-02-13T14:06:14;12.80;94.10
36458;DHT22;22480;50.546;12.292;2023-02-13T14:13:52;11.30;99.90
36458;DHT22;22480;50.546;12.292;2023-02-13T14:19:02;10.50;99.90
36458;DHT22;22480;50.546;12.292;2023-02-13T14:21:29;10.70;99.90
36458;DHT22;22480;50.546;12.292;2023-02-13T14:23:56;10.80;99.90
36458;DHT22;22480;50.546;12.292;2023-02-13T14:26:32;11.40;99.90
36458;DHT22;22480;50.546;12.292;2023-02-13T14:32:05;14.10;90.70
36458;DHT22;22480;50.546;12.292;2023-02-13T14:34:36;13.70;88.80
36458;DHT22;22480;50.546;12.292;2023-02-13T14:39:35;13.30;96.60
36458;DHT22;22480;50.546;12.292;2023-02-13T14:42:22;14.00;96.30
36458;DHT22;22480;50.546;12.292;2023-02-13T14:44:57;14.90;91.30
36458;DHT22;22480;50.546;12.292;2023-02-13T14:47:39;15.30;87.20
36458;DHT22;22480;50.546;12.292;2023-02-13T14:50:14;15.70;74.20
36458;DHT22;22480;50.546;12.292;2023-02-13T14:52:42;15.50;82.10
36458;DHT22;22480;50.546;12.292;2023-02-13T14:57:48;15.00;93.80
36458;DHT22;22480;50.546;12.292;2023-02-13T15:03:01;15.80;93.10
36458;DHT22;22480;50.546;12.292;2023-02-13T15:05:33;16.10;91.90
36458;DHT22;22480;50.546;12.292;2023-02-13T15:08:23;15.90;83.20
36458;DHT22;22480;50.546;12.292;2023-02-13T15:10:52;15.90;88.50
36458;DHT22;22480;50.546;12.292;2023-02-13T15:13:33;15.70;93.20
36458;DHT22;22480;50.546;12.292;2023-02-13T15:16:00;16.10;92.80
36458;DHT22;22480;50.546;12.292;2023-02-13T15:18:48;16.20;89.40
36458;DHT22;22480;50.546;12.292;2023-02-13T15:21:21;16.20;86.80
36458;DHT22;22480;50.546;12.292;2023-02-13T15:23:50;15.70;87.30
36458;DHT22;22480;50.546;12.292;2023-02-13T15:26:22;15.30;88.70
36458;DHT22;22480;50.546;12.292;2023-02-13T15:29:03;15.00;90.20
36458;DHT22;22480;50.546;12.292;2023-02-13T15:31:31;14.80;91.50
36458;DHT22;22480;50.546;12.292;2023-02-13T15:34:02;14.50;96.90
36458;DHT22;22480;50.546;12.292;2023-02-13T15:36:48;14.30;94.20
36458;DHT22;22480;50.546;12.292;2023-02-13T15:39:17;13.80;95.10
36458;DHT22;22480;50.546;12.292;2023-02-13T15:41:49;13.30;98.00
36458;DHT22;22480;50.546;12.292;2023-02-13T15:44:27;12.70;99.00
36458;DHT22;22480;50.546;12.292;2023-02-13T15:46:56;12.20;99.90
36458;DHT22;22480;50.546;12.292;2023-02-13T15:49:25;11.70;99.90
36458;DHT22;22480;50.546;12.292;2023-02-13T15:52:02;10.60;99.90
36458;DHT22;22480;50.546;12.292;2023-02-13T15:54:30;9.40;99.90
36458;DHT22;22480;50.546;12.292;2023-02-13T15:56:59;8.50;99.90
36458;DHT22;22480;50.546;12.292;2023-02-13T15:59:31;7.80;99.90
36458;DHT22;22480;50.546;12.292;2023-02-13T16:01:59;7.20;99.90
36458;DHT22;22480;50.546;12.292;2023-02-13T16:04:25;6.70;99.90
36458;DHT22;22480;50.546;12.292;2023-02-13T16:06:54;6.40;99.90
36458;DHT22;22480;50.546;12.292;2023-02-13T16:09:32;6.00;99.90
36458;DHT22;22480;50.546;12.292;2023-02-13T16:12:14;5.70;99.90
36458;DHT22;22480;50.546;12.292;2023-02-13T16:14:51;5.50;99.90
36458;DHT22;22480;50.546;12.292;2023-02-13T16:17:26;5.20;99.90
36458;DHT22;22480;50.546;12.292;2023-02-13T16:27:49;4.20;99.90
36458;DHT22;22480;50.546;12.292;2023-02-13T16:30:23;4.00;99.90
36458;DHT22;22480;50.546;12.292;2023-02-13T16:32:49;3.70;99.90
36458;DHT22;22480;50.546;12.292;2023-02-13T16:35:27;3.40;99.90
36458;DHT22;22480;50.546;12.292;2023-02-13T16:37:58;3.20;99.90
36458;DHT22;22480;50.546;12.292;2023-02-13T16:48:43;2.70;99.90
36458;DHT22;22480;50.546;12.292;2023-02-13T16:51:10;2.80;99.90
36458;DHT22;22480;50.546;12.292;2023-02-13T16:53:37;2.80;99.90
36458;DHT22;22480;50.546;12.292;2023-02-13T16:56:07;2.70;99.90
36458;DHT22;22480;50.546;12.292;2023-02-13T16:58:33;2.50;99.90
36458;DHT22;22480;50.546;12.292;2023-02-13T17:00:59;2.40;99.90
36458;DHT22;22480;50.546;12.292;2023-02-13T17:03:26;2.30;99.90
36458;DHT22;22480;50.546;12.292;2023-02-13T17:05:52;2.40;99.90
36458;DHT22;22480;50.546;12.292;2023-02-13T17:08:20;2.30;99.90
36458;DHT22;22480;50.546;12.292;2023-02-13T17:11:06;2.10;99.90
36458;DHT22;22480;50.546;12.292;2023-02-13T17:13:33;2.00;99.90
36458;DHT22;22480;50.546;12.292;2023-02-13T17:15:59;1.90;99.90
36458;DHT22;22480;50.546;12.292;2023-02-13T17:18:25;1.80;99.90
36458;DHT22;22480;50.546;12.292;2023-02-13T17:20:51;1.70;99.90
36458;DHT22;22480;50.546;12.292;2023-02-13T17:23:20;1.50;99.90
36458;DHT22;22480;50.546;12.292;2023-02-13T17:25:47;1.40;99.90
36458;DHT22;22480;50.546;12.292;2023-02-13T17:28:24;1.30;99.90
36458;DHT22;22480;50.546;12.292;2023-02-13T17:30:54;1.30;99.90
36458;DHT22;22480;50.546;12.292;2023-02-13T17:33:21;1.30;99.90
36458;DHT22;22480;50.546;12.292;2023-02-13T17:35:47;1.50;99.90
36458;DHT22;22480;50.546;12.292;2023-02-13T17:38:13;1.60;99.90
36458;DHT22;22480;50.546;12.292;2023-02-13T17:40:40;1.60;99.90
36458;DHT22;22480;50.546;12.292;2023-02-13T17:43:06;1.40;99.90
36458;DHT22;22480;50.546;12.292;2023-02-13T17:45:33;1.20;99.90
36458;DHT22;22480;50.546;12.292;2023-02-13T17:47:59;1.10;99.90
36458;DHT22;22480;50.546;12.292;2023-02-13T17:50:26;1.10;99.90
36458;DHT22;22480;50.546;12.292;2023-02-13T17:52:52;1.10;99.90
36458;DHT22;22480;50.546;12.292;2023-02-13T17:55:23;1.00;99.90
36458;DHT22;22480;50.546;12.292;2023-02-13T17:57:50;1.20;99.90
36458;DHT22;22480;50.546;12.292;2023-02-13T18:00:17;1.30;99.90
36458;DHT22;22480;50.546;12.292;2023-02-13T18:02:45;1.40;99.90
36458;DHT22;22480;50.546;12.292;2023-02-13T18:05:16;1.40;99.90
36458;DHT22;22480;50.546;12.292;2023-02-13T18:07:43;1.40;99.90
36458;DHT22;22480;50.546;12.292;2023-02-13T18:10:21;1.30;99.90
36458;DHT22;22480;50.546;12.292;2023-02-13T18:12:48;1.00;99.90
36458;DHT22;22480;50.546;12.292;2023-02-13T18:15:14;0.90;99.90
36458;DHT22;22480;50.546;12.292;2023-02-13T18:17:41;0.70;99.90
36458;DHT22;22480;50.546;12.292;2023-02-13T18:20:09;0.60;99.90
36458;DHT22;22480;50.546;12.292;2023-02-13T18:22:35;0.60;99.90
36458;DHT22;22480;50.546;12.292;2023-02-13T18:25:01;0.30;99.90
36458;DHT22;22480;50.546;12.292;2023-02-13T18:27:27;0.10;99.90
36458;DHT22;22480;50.546;12.292;2023-02-13T18:29:54;-0.10;99.90
36458;DHT22;22480;50.546;12.292;2023-02-13T18:32:21;-0.20;99.90